Time;durP1;ratioP1;P1;durP2;ratioP2;P2;SDS_P1;SDS_P2;PMS_P1;PMS_P2;Temp;Humidity;BMP_temperature;BMP_pressure;BME280_temperature;BME280_humidity;BME280_pressure;Samples;Min_cycle;Max_cycle;Signal;HPM_P1;HPM_P2
2021/11/01 00:00:11;;;;;;;0.60;0.60;;;;;;;;;;5049786;28;20210;-71
2021/11/01 00:02:37;;;;;;;0.60;0.60;;;;;;;;;;5054373;28;20527;-71
2021/11/01 00:05:04;;;;;;;0.60;0.60;;;;;;;;;;5056659;28;20189;-72
2021/11/01 00:07:29;;;;;;;0.60;0.60;;;;;;;;;;5049186;28;20209;-72
2021/11/01 00:09:55;;;;;;;0.60;0.60;;;;;;;;;;5048334;28;20465;-72
2021/11/01 00:12:27;;;;;;;0.70;0.70;;;;;;;;;;5056619;28;20774;-71
2021/11/01 00:14:53;;;;;;;0.70;0.70;;;;;;;;;;5044555;28;20506;-71
2021/11/01 00:17:19;;;;;;;1.10;1.10;;;;;;;;;;5052740;28;20173;-71
2021/11/01 00:19:44;;;;;;;0.60;0.60;;;;;;;;;;5052280;28;20827;-71
2021/11/01 00:22:10;;;;;;;0.60;0.60;;;;;;;;;;5054397;28;21027;-72
2021/11/01 00:24:37;;;;;;;1.70;1.60;;;;;;;;;;5054475;28;20929;-72
2021/11/01 00:27:03;;;;;;;0.60;0.60;;;;;;;;;;5040254;28;20479;-72
2021/11/01 00:29:29;;;;;;;0.70;0.70;;;;;;;;;;5045291;28;20206;-72
2021/11/01 00:31:55;;;;;;;0.60;0.50;;;;;;;;;;5055419;28;20188;-72
2021/11/01 00:34:21;;;;;;;0.60;0.60;;;;;;;;;;5056331;28;20513;-72
2021/11/01 00:36:47;;;;;;;0.60;0.60;;;;;;;;;;5056031;28;20416;-73
2021/11/01 00:39:13;;;;;;;0.60;0.57;;;;;;;;;;5051853;28;20707;-72
2021/11/01 00:41:39;;;;;;;0.60;0.60;;;;;;;;;;5052767;28;20562;-72
2021/11/01 00:44:05;;;;;;;0.80;0.80;;;;;;;;;;5050330;28;20433;-72
2021/11/01 00:46:32;;;;;;;0.60;0.60;;;;;;;;;;5051948;28;20432;-72
2021/11/01 00:48:58;;;;;;;0.60;0.60;;;;;;;;;;5055230;28;20230;-72
2021/11/01 00:51:24;;;;;;;0.70;0.70;;;;;;;;;;5049128;28;20200;-72
2021/11/01 00:53:50;;;;;;;0.60;0.60;;;;;;;;;;5052033;28;20214;-72
2021/11/01 00:56:18;;;;;;;0.77;0.77;;;;;;;;;;5047379;28;20185;-71
2021/11/01 00:58:44;;;;;;;0.60;0.60;;;;;;;;;;5044409;28;21017;-72
2021/11/01 01:01:11;;;;;;;0.60;0.60;;;;;;;;;;5052009;28;20174;-72
2021/11/01 01:03:37;;;;;;;0.95;0.90;;;;;;;;;;5049431;28;20676;-72
2021/11/01 01:06:03;;;;;;;0.60;0.60;;;;;;;;;;5046756;28;20195;-72
2021/11/01 01:08:29;;;;;;;0.60;0.60;;;;;;;;;;5035842;28;20677;-72
2021/11/01 01:10:56;;;;;;;0.95;0.95;;;;;;;;;;5045633;28;20452;-72
2021/11/01 01:13:24;;;;;;;0.60;0.60;;;;;;;;;;5051697;28;20216;-72
2021/11/01 01:18:21;;;;;;;0.73;0.73;;;;;;;;;;5051140;28;20295;-71
2021/11/01 01:20:47;;;;;;;0.60;0.60;;;;;;;;;;5048563;28;20178;-71
2021/11/01 01:23:13;;;;;;;0.60;0.60;;;;;;;;;;5055044;28;20585;-72
2021/11/01 01:25:46;;;;;;;0.65;0.65;;;;;;;;;;5056389;28;20309;-72
2021/11/01 01:28:13;;;;;;;0.95;0.95;;;;;;;;;;5044181;28;20207;-72
2021/11/01 01:30:39;;;;;;;0.60;0.60;;;;;;;;;;5048422;28;20278;-72
2021/11/01 01:33:10;;;;;;;0.60;0.50;;;;;;;;;;5049818;28;20197;-72
2021/11/01 01:35:37;;;;;;;0.60;0.60;;;;;;;;;;5047377;28;20209;-71
2021/11/01 01:38:03;;;;;;;0.60;0.60;;;;;;;;;;5040337;28;20177;-72
2021/11/01 01:40:29;;;;;;;0.90;0.80;;;;;;;;;;5045248;28;20182;-72
2021/11/01 01:42:56;;;;;;;0.70;0.70;;;;;;;;;;5049308;28;20612;-72
2021/11/01 01:45:21;;;;;;;1.23;1.13;;;;;;;;;;5047414;28;20186;-71
2021/11/01 01:47:48;;;;;;;0.60;0.60;;;;;;;;;;5048202;28;20265;-71
2021/11/01 01:50:15;;;;;;;0.80;0.80;;;;;;;;;;5041806;28;20442;-72
2021/11/01 01:52:41;;;;;;;0.70;0.70;;;;;;;;;;5048617;28;20183;-72
2021/11/01 01:55:09;;;;;;;0.60;0.60;;;;;;;;;;5046531;28;20202;-72
2021/11/01 01:57:35;;;;;;;0.60;0.60;;;;;;;;;;5048323;28;20184;-71
2021/11/01 02:00:01;;;;;;;0.60;0.60;;;;;;;;;;5047906;28;20275;-72
2021/11/01 02:02:28;;;;;;;0.60;0.60;;;;;;;;;;5046787;28;20220;-72
2021/11/01 02:04:54;;;;;;;0.70;0.70;;;;;;;;;;5049729;28;20408;-71
2021/11/01 02:07:31;;;;;;;0.60;0.60;;;;;;;;;;5038121;28;20538;-72
2021/11/01 02:10:09;;;;;;;0.60;0.60;;;;;;;;;;5049163;28;20447;-72
2021/11/01 02:12:39;;;;;;;0.60;0.60;;;;;;;;;;5050616;28;20213;-72
2021/11/01 02:15:17;;;;;;;0.60;0.60;;;;;;;;;;5051989;28;20208;-72
2021/11/01 02:17:44;;;;;;;0.60;0.60;;;;;;;;;;5046717;28;20692;-72
2021/11/01 02:20:15;;;;;;;0.70;0.50;;;;;;;;;;5043973;28;20430;-72
2021/11/01 02:22:48;;;;;;;0.70;0.70;;;;;;;;;;5047665;28;20831;-72
2021/11/01 02:25:22;;;;;;;0.60;0.60;;;;;;;;;;5039060;28;20212;-72
2021/11/01 02:27:48;;;;;;;0.60;0.60;;;;;;;;;;5039507;28;20183;-72
2021/11/01 02:30:15;;;;;;;0.60;0.60;;;;;;;;;;5052155;28;20181;-72
2021/11/01 02:32:43;;;;;;;0.70;0.70;;;;;;;;;;5045012;28;20482;-73
2021/11/01 02:35:09;;;;;;;0.60;0.60;;;;;;;;;;5046935;28;20208;-72
2021/11/01 02:37:40;;;;;;;1.88;1.77;;;;;;;;;;5043789;28;20231;-72
2021/11/01 02:40:06;;;;;;;0.70;0.70;;;;;;;;;;5045167;28;20205;-72
2021/11/01 02:42:34;;;;;;;0.60;0.60;;;;;;;;;;5050103;28;20280;-72
2021/11/01 02:45:01;;;;;;;0.80;0.80;;;;;;;;;;5049452;28;20683;-72
2021/11/01 02:47:28;;;;;;;0.60;0.60;;;;;;;;;;5039794;28;20239;-71
2021/11/01 02:49:57;;;;;;;0.60;0.60;;;;;;;;;;5051084;28;20577;-72
2021/11/01 02:52:23;;;;;;;0.60;0.60;;;;;;;;;;5049758;28;20272;-72
2021/11/01 02:54:50;;;;;;;0.60;0.60;;;;;;;;;;5064494;28;20340;-72
2021/11/01 02:57:16;;;;;;;0.60;0.60;;;;;;;;;;5051875;28;20659;-72
2021/11/01 02:59:42;;;;;;;0.60;0.60;;;;;;;;;;5051402;28;20198;-72
2021/11/01 03:02:09;;;;;;;0.60;0.60;;;;;;;;;;5052424;28;20185;-72
2021/11/01 03:04:35;;;;;;;0.70;0.70;;;;;;;;;;5054832;28;20185;-72
2021/11/01 03:07:02;;;;;;;0.60;0.60;;;;;;;;;;5047662;28;20291;-72
2021/11/01 03:09:35;;;;;;;0.60;0.60;;;;;;;;;;5050796;28;20244;-72
2021/11/01 03:12:03;;;;;;;0.60;0.60;;;;;;;;;;5053643;28;20185;-72
2021/11/01 03:14:32;;;;;;;0.60;0.60;;;;;;;;;;5047964;28;20204;-72
2021/11/01 03:16:59;;;;;;;0.73;0.65;;;;;;;;;;5043686;28;20428;-72
2021/11/01 03:19:29;;;;;;;0.60;0.60;;;;;;;;;;5054929;28;20206;-72
2021/11/01 03:21:57;;;;;;;0.60;0.57;;;;;;;;;;5046491;28;20511;-72
2021/11/01 03:24:23;;;;;;;0.60;0.60;;;;;;;;;;5053616;28;20195;-72
2021/11/01 03:26:50;;;;;;;0.80;0.70;;;;;;;;;;5053088;28;20200;-72
2021/11/01 03:29:17;;;;;;;0.60;0.60;;;;;;;;;;5047574;28;20249;-72
2021/11/01 03:31:43;;;;;;;0.60;0.55;;;;;;;;;;5050023;28;20645;-72
2021/11/01 03:34:10;;;;;;;0.60;0.60;;;;;;;;;;5053788;28;20216;-72
2021/11/01 03:36:37;;;;;;;0.70;0.70;;;;;;;;;;5053472;28;20231;-72
2021/11/01 03:39:06;;;;;;;0.85;0.85;;;;;;;;;;5051071;28;20201;-71
2021/11/01 03:41:33;;;;;;;0.60;0.60;;;;;;;;;;5050314;28;20206;-72
2021/11/01 03:44:06;;;;;;;0.60;0.60;;;;;;;;;;5045728;28;20626;-71
2021/11/01 03:46:42;;;;;;;0.60;0.60;;;;;;;;;;5051779;28;20186;-72
2021/11/01 03:49:12;;;;;;;0.60;0.60;;;;;;;;;;5048027;28;20213;-72
2021/11/01 03:54:16;;;;;;;0.70;0.70;;;;;;;;;;5055203;28;20217;-72
2021/11/01 03:56:43;;;;;;;0.60;0.60;;;;;;;;;;5051540;28;20170;-71
2021/11/01 03:59:09;;;;;;;0.60;0.60;;;;;;;;;;5046864;28;20642;-72
2021/11/01 04:01:39;;;;;;;0.60;0.60;;;;;;;;;;5042972;28;20185;-72
2021/11/01 04:04:06;;;;;;;0.60;0.60;;;;;;;;;;5049181;28;20181;-72
2021/11/01 04:06:32;;;;;;;0.60;0.60;;;;;;;;;;5048620;28;20273;-72
2021/11/01 04:08:58;;;;;;;0.60;0.60;;;;;;;;;;5045883;28;20229;-72
2021/11/01 04:11:25;;;;;;;0.60;0.60;;;;;;;;;;5040367;28;20181;-72
2021/11/01 04:13:57;;;;;;;0.93;0.93;;;;;;;;;;5044379;28;20173;-72
2021/11/01 04:16:30;;;;;;;0.60;0.60;;;;;;;;;;5042758;28;20182;-72
2021/11/01 04:19:04;;;;;;;0.60;0.60;;;;;;;;;;5042899;28;20585;-72
2021/11/01 04:21:32;;;;;;;0.60;0.60;;;;;;;;;;5041576;28;20189;-71
2021/11/01 04:24:00;;;;;;;0.85;0.85;;;;;;;;;;5046559;28;20285;-72
2021/11/01 04:26:28;;;;;;;0.60;0.60;;;;;;;;;;5051073;28;20181;-72
2021/11/01 04:28:55;;;;;;;0.60;0.60;;;;;;;;;;5041522;28;20636;-72
2021/11/01 04:31:27;;;;;;;0.60;0.60;;;;;;;;;;5043273;28;20684;-72
2021/11/01 04:33:56;;;;;;;0.70;0.70;;;;;;;;;;5051057;28;20189;-72
2021/11/01 04:36:23;;;;;;;0.70;0.50;;;;;;;;;;5050705;28;20423;-72
2021/11/01 04:41:35;;;;;;;1.05;1.05;;;;;;;;;;5049492;28;20193;-72
2021/11/01 04:54:50;;;;;;;0.70;0.50;;;;;;;;;;5047722;28;20438;-71
2021/11/01 04:57:18;;;;;;;1.50;0.60;;;;;;;;;;5042579;28;20424;-72
2021/11/01 04:59:44;;;;;;;0.70;0.60;;;;;;;;;;5041643;28;20426;-72
2021/11/01 05:02:10;;;;;;;0.70;0.50;;;;;;;;;;5045646;28;20903;-72
2021/11/01 05:04:38;;;;;;;0.70;0.50;;;;;;;;;;5050455;28;20420;-71
2021/11/01 05:07:05;;;;;;;0.80;0.70;;;;;;;;;;5048503;28;20522;-72
2021/11/01 05:12:39;;;;;;;0.70;0.50;;;;;;;;;;5048748;28;20419;-72
2021/11/01 05:30:37;;;;;;;0.70;0.60;;;;;;;;;;5043425;28;20205;-72
2021/11/01 05:35:30;;;;;;;0.70;0.50;;;;;;;;;;5044644;28;20565;-72
2021/11/01 05:37:56;;;;;;;0.70;0.60;;;;;;;;;;5051304;28;20417;-72
2021/11/01 05:40:22;;;;;;;0.80;0.80;;;;;;;;;;5034197;28;20542;-72
2021/11/01 05:42:48;;;;;;;0.90;0.90;;;;;;;;;;5039996;28;20198;-72
2021/11/01 05:45:14;;;;;;;0.70;0.60;;;;;;;;;;5050162;28;20415;-72
2021/11/01 05:47:41;;;;;;;0.70;0.60;;;;;;;;;;5041464;28;20803;-72
2021/11/01 05:50:09;;;;;;;0.70;0.60;;;;;;;;;;5043201;28;20442;-72
2021/11/01 05:52:35;;;;;;;0.80;0.50;;;;;;;;;;5053484;28;20424;-72
2021/11/01 05:55:15;;;;;;;0.70;0.60;;;;;;;;;;5053448;28;20433;-72
2021/11/01 06:11:02;;;;;;;0.70;0.70;;;;;;;;;;5038231;28;21093;-72
2021/11/01 06:13:32;;;;;;;0.70;0.60;;;;;;;;;;5039835;28;20201;-72
2021/11/01 06:16:00;;;;;;;0.70;0.60;;;;;;;;;;5047608;28;20688;-72
2021/11/01 06:18:35;;;;;;;0.70;0.60;;;;;;;;;;5032026;28;20198;-72
2021/11/01 06:21:02;;;;;;;0.70;0.60;;;;;;;;;;5043139;28;20189;-71
2021/11/01 06:23:28;;;;;;;0.70;0.60;;;;;;;;;;5048868;28;20178;-72
2021/11/01 06:25:54;;;;;;;0.70;0.70;;;;;;;;;;5052398;28;20211;-72
2021/11/01 06:28:20;;;;;;;1.48;1.38;;;;;;;;;;5056833;28;20431;-72
2021/11/01 06:30:52;;;;;;;0.70;0.60;;;;;;;;;;5062353;28;20548;-72
2021/11/01 07:17:06;;;;;;;0.70;0.60;;;;;;;;;;5021010;28;20189;-69
2021/11/01 07:19:23;;;;;;;0.70;0.60;;;;;;;;;;5010045;28;20198;-68
2021/11/01 07:30:47;;;;;;;0.70;0.60;;;;;;;;;;5020970;28;20337;-69
2021/11/01 08:17:17;;;;;;;1.40;1.02;;;;;;;;;;5012298;28;20202;-68
2021/11/01 08:44:18;;;;;;;0.60;0.60;;;;;;;;;;5011846;28;20202;-69
2021/11/01 08:51:59;;;;;;;0.60;0.60;;;;;;;;;;5018666;28;20801;-69
2021/11/01 09:03:23;;;;;;;0.60;0.60;;;;;;;;;;4969110;28;20649;-69
2021/11/01 09:22:52;;;;;;;0.60;0.60;;;;;;;;;;4967944;28;20187;-69
2021/11/01 09:26:02;;;;;;;0.60;0.60;;;;;;;;;;4962944;28;20194;-69
2021/11/01 09:28:24;;;;;;;0.60;0.60;;;;;;;;;;4990231;28;20202;-69
2021/11/01 09:41:15;;;;;;;0.60;0.50;;;;;;;;;;5002830;28;20627;-69
2021/11/01 09:43:43;;;;;;;5.28;0.82;;;;;;;;;;5009732;28;20187;-69
2021/11/01 09:46:10;;;;;;;0.60;0.60;;;;;;;;;;5009628;28;20187;-69
2021/11/01 09:48:37;;;;;;;0.60;0.50;;;;;;;;;;5008559;28;20223;-69
2021/11/01 09:51:04;;;;;;;0.77;0.70;;;;;;;;;;5016220;28;20239;-69
2021/11/01 09:53:39;;;;;;;0.60;0.60;;;;;;;;;;5012240;28;20758;-69
2021/11/01 10:01:35;;;;;;;0.60;0.50;;;;;;;;;;5009443;28;20190;-68
2021/11/01 10:04:02;;;;;;;0.60;0.50;;;;;;;;;;4993839;28;20214;-69
2021/11/01 10:06:30;;;;;;;0.60;0.50;;;;;;;;;;5011295;28;20258;-69
2021/11/01 10:08:58;;;;;;;0.60;0.60;;;;;;;;;;5016254;28;20297;-69
2021/11/01 10:11:25;;;;;;;0.60;0.60;;;;;;;;;;5011870;28;20240;-69
2021/11/01 10:13:55;;;;;;;0.80;0.80;;;;;;;;;;5011904;28;20650;-69
2021/11/01 10:19:49;;;;;;;0.60;0.60;;;;;;;;;;5009832;28;20760;-69
2021/11/01 10:22:27;;;;;;;0.60;0.60;;;;;;;;;;4975991;28;20194;-69
2021/11/01 10:24:55;;;;;;;0.60;0.60;;;;;;;;;;5002485;28;20231;-68
2021/11/01 10:27:32;;;;;;;0.60;0.60;;;;;;;;;;5011222;28;20267;-68
2021/11/01 13:38:05;;;;;;;0.60;0.60;;;;;;;;;;5088229;28;20561;-69
2021/11/01 13:40:41;;;;;;;0.90;0.60;;;;;;;;;;5068303;28;20395;-69
2021/11/01 13:43:07;;;;;;;0.60;0.50;;;;;;;;;;5067938;28;20893;-69
2021/11/01 13:45:33;;;;;;;0.60;0.60;;;;;;;;;;5068643;28;20256;-69
2021/11/01 13:48:00;;;;;;;0.60;0.60;;;;;;;;;;5068265;28;20402;-70
2021/11/01 13:50:28;;;;;;;0.60;0.60;;;;;;;;;;5068636;28;20196;-69
2021/11/01 13:52:54;;;;;;;0.60;0.50;;;;;;;;;;5068843;28;20185;-69
2021/11/01 13:55:31;;;;;;;0.70;0.70;;;;;;;;;;5068801;28;20234;-70
2021/11/01 13:58:14;;;;;;;0.60;0.60;;;;;;;;;;5067792;28;20190;-69
2021/11/01 14:33:48;;;;;;;0.60;0.60;;;;;;;;;;5068041;28;20185;-69
2021/11/01 15:19:33;;;;;;;0.60;0.60;;;;;;;;;;5053662;28;20229;-69
2021/11/01 15:24:57;;;;;;;0.60;0.60;;;;;;;;;;5041156;28;20664;-69
2021/11/01 15:38:11;;;;;;;0.70;0.70;;;;;;;;;;5034953;28;20237;-69
2021/11/01 16:18:32;;;;;;;0.60;0.60;;;;;;;;;;5032932;28;20190;-69
2021/11/01 16:20:58;;;;;;;0.77;0.77;;;;;;;;;;5048345;28;20412;-69
2021/11/01 16:23:37;;;;;;;0.70;0.70;;;;;;;;;;5051164;28;20258;-70
2021/11/01 16:26:13;;;;;;;0.65;0.65;;;;;;;;;;5052186;28;20429;-69
2021/11/01 16:28:40;;;;;;;0.63;0.63;;;;;;;;;;5052134;28;20669;-69
2021/11/01 16:33:46;;;;;;;0.60;0.60;;;;;;;;;;5062120;28;20181;-69
2021/11/01 16:36:24;;;;;;;1.75;1.65;;;;;;;;;;5051214;28;20233;-69
2021/11/01 16:38:53;;;;;;;0.70;0.70;;;;;;;;;;5052774;28;20700;-70
2021/11/01 16:41:20;;;;;;;0.60;0.50;;;;;;;;;;5052731;28;20671;-69
2021/11/01 16:43:47;;;;;;;0.60;0.60;;;;;;;;;;5052447;28;20173;-69
2021/11/01 16:46:13;;;;;;;0.90;0.85;;;;;;;;;;5051342;28;20238;-69
2021/11/01 16:48:39;;;;;;;0.60;0.60;;;;;;;;;;5052250;28;20202;-69
2021/11/01 16:51:05;;;;;;;1.13;1.02;;;;;;;;;;5049922;28;20863;-70
2021/11/01 16:53:33;;;;;;;0.60;0.60;;;;;;;;;;5052415;28;20748;-69
2021/11/01 16:56:24;;;;;;;0.60;0.60;;;;;;;;;;5051432;28;20204;-69
2021/11/01 16:58:53;;;;;;;0.70;0.50;;;;;;;;;;5051174;28;20411;-70
2021/11/01 17:01:22;;;;;;;0.70;0.70;;;;;;;;;;5059781;28;20181;-69
2021/11/01 17:03:53;;;;;;;0.60;0.60;;;;;;;;;;5060081;28;20231;-69
2021/11/01 17:06:40;;;;;;;0.65;0.65;;;;;;;;;;5051040;28;20183;-69
2021/11/01 17:09:42;;;;;;;0.60;0.60;;;;;;;;;;5052114;28;20757;-69
2021/11/01 17:24:02;;;;;;;0.60;0.60;;;;;;;;;;5010562;28;20186;-69
2021/11/01 17:26:21;;;;;;;0.60;0.60;;;;;;;;;;5040704;28;20189;-69
2021/11/01 18:38:37;;;;;;;0.60;0.60;;;;;;;;;;5058376;28;20744;-69
2021/11/01 18:40:25;;;;;;;0.60;0.60;;;;;;;;;;5027057;28;20750;-69
2021/11/01 18:43:06;;;;;;;0.90;0.80;;;;;;;;;;5045511;28;20191;-69
2021/11/01 18:51:05;;;;;;;0.60;0.60;;;;;;;;;;5054893;28;20212;-70
2021/11/01 18:53:44;;;;;;;0.75;0.75;;;;;;;;;;5069889;28;20191;-70
2021/11/01 18:56:11;;;;;;;0.60;0.50;;;;;;;;;;5038752;28;21619;-70
2021/11/01 18:58:40;;;;;;;0.60;0.60;;;;;;;;;;5038992;28;20236;-70
2021/11/01 19:01:10;;;;;;;0.60;0.60;;;;;;;;;;5054015;28;20185;-69
2021/11/01 19:03:49;;;;;;;0.60;0.60;;;;;;;;;;5068616;28;20297;-68
2021/11/01 20:04:11;;;;;;;0.70;0.60;;;;;;;;;;5053197;28;20185;-69
2021/11/01 20:12:08;;;;;;;0.70;0.60;;;;;;;;;;5044726;28;20316;-69
2021/11/01 21:26:51;;;;;;;0.70;0.70;;;;;;;;;;5030934;28;20197;-69
2021/11/01 21:29:17;;;;;;;0.70;0.60;;;;;;;;;;5039201;28;20205;-69
2021/11/01 21:31:43;;;;;;;3.63;1.20;;;;;;;;;;5058772;28;20433;-70
2021/11/01 21:34:15;;;;;;;0.70;0.60;;;;;;;;;;5052126;28;20972;-69
2021/11/01 21:36:41;;;;;;;0.70;0.65;;;;;;;;;;5050966;28;20851;-69
2021/11/01 21:39:07;;;;;;;0.70;0.60;;;;;;;;;;5050870;28;20201;-69
2021/11/01 21:41:33;;;;;;;0.80;0.73;;;;;;;;;;5051524;28;20174;-70
2021/11/01 21:43:59;;;;;;;0.70;0.60;;;;;;;;;;5039666;28;20552;-69
2021/11/01 21:46:25;;;;;;;0.70;0.60;;;;;;;;;;5049371;28;20490;-69
2021/11/01 21:48:51;;;;;;;1.17;0.83;;;;;;;;;;5050061;28;20440;-69
2021/11/01 21:51:17;;;;;;;0.70;0.60;;;;;;;;;;5042943;28;20787;-70
2021/11/01 21:54:02;;;;;;;0.70;0.60;;;;;;;;;;5032408;28;20908;-69
2021/11/01 21:56:31;;;;;;;1.15;0.98;;;;;;;;;;5030762;28;20206;-69
2021/11/01 21:59:20;;;;;;;1.33;1.23;;;;;;;;;;5033188;28;20198;-70
2021/11/01 22:20:36;;;;;;;0.70;0.70;;;;;;;;;;5035291;28;20182;-69
2021/11/01 22:23:16;;;;;;;0.70;0.70;;;;;;;;;;5052216;28;20837;-69
2021/11/01 22:26:23;;;;;;;0.70;0.60;;;;;;;;;;5054757;28;20238;-69
2021/11/01 22:39:32;;;;;;;0.70;0.60;;;;;;;;;;5054626;28;20267;-70
2021/11/01 22:57:39;;;;;;;0.95;0.93;;;;;;;;;;5053678;28;20269;-69
2021/11/01 23:00:17;;;;;;;0.70;0.67;;;;;;;;;;5054819;28;20674;-69
2021/11/01 23:02:43;;;;;;;1.45;1.35;;;;;;;;;;5064585;28;20423;-70
2021/11/01 23:32:52;;;;;;;0.70;0.70;;;;;;;;;;5063842;28;20203;-69
2021/11/01 23:35:19;;;;;;;0.70;0.60;;;;;;;;;;5073826;28;20262;-71
2021/11/01 23:37:45;;;;;;;0.70;0.60;;;;;;;;;;5072713;28;20208;-69
2021/11/01 23:40:11;;;;;;;0.80;0.80;;;;;;;;;;5073585;28;20189;-70
2021/11/01 23:42:37;;;;;;;0.70;0.60;;;;;;;;;;5067923;28;20180;-69
2021/11/01 23:45:04;;;;;;;0.70;0.60;;;;;;;;;;5053239;28;20188;-69
2021/11/01 23:47:30;;;;;;;0.70;0.60;;;;;;;;;;5052626;28;20190;-70
2021/11/01 23:49:55;;;;;;;0.70;0.70;;;;;;;;;;5053492;28;20198;-69
2021/11/01 23:52:23;;;;;;;0.70;0.70;;;;;;;;;;5052922;28;20411;-69
2021/11/01 23:54:49;;;;;;;0.70;0.60;;;;;;;;;;5039362;28;20431;-69
2021/11/01 23:57:16;;;;;;;0.70;0.70;;;;;;;;;;5044881;28;20239;-69
2021/11/01 23:59:43;;;;;;;0.70;0.70;;;;;;;;;;5052756;28;20197;-69
